Time;durP1;ratioP1;P1;durP2;ratioP2;P2;SDS_P1;SDS_P2;PMS_P1;PMS_P2;Temp;Humidity;BMP_temperature;BMP_pressure;BME280_temperature;BME280_humidity;BME280_pressure;Samples;Min_cycle;Max_cycle;Signal;HPM_P1;HPM_P2
2022/06/11 00:00:14;;;;;;;21.70;15.35;;;;;;;18.80;100.00;99429.28;5026216;28;20025;-30
2022/06/11 00:02:40;;;;;;;22.98;17.15;;;;;;;18.89;100.00;99432.13;5024908;28;20040;-31
2022/06/11 00:05:06;;;;;;;21.15;16.98;;;;;;;18.77;100.00;99429.81;5026032;28;20030;-30
2022/06/11 00:07:33;;;;;;;22.05;16.63;;;;;;;18.86;100.00;99417.31;5024912;28;20033;-30
2022/06/11 00:09:58;;;;;;;22.05;17.25;;;;;;;18.97;100.00;99411.78;5024781;28;20118;-33
2022/06/11 00:12:25;;;;;;;22.13;17.92;;;;;;;19.08;100.00;99418.63;5025745;28;20092;-33
2022/06/11 00:14:51;;;;;;;23.43;18.17;;;;;;;18.91;100.00;99397.53;5026620;28;20040;-38
2022/06/11 00:17:20;;;;;;;22.80;18.13;;;;;;;19.03;100.00;99410.63;5028034;28;20272;-32
2022/06/11 00:19:46;;;;;;;23.80;18.40;;;;;;;18.85;100.00;99407.59;5045717;28;20033;-30
2022/06/11 00:22:13;;;;;;;21.48;17.88;;;;;;;18.74;100.00;99402.59;5027822;28;20052;-31
2022/06/11 00:24:39;;;;;;;21.47;17.67;;;;;;;18.99;100.00;99407.69;5027653;28;20033;-30
2022/06/11 00:27:06;;;;;;;21.67;17.77;;;;;;;18.77;100.00;99383.88;5027410;28;20044;-30
2022/06/11 00:29:37;;;;;;;23.42;19.35;;;;;;;18.81;100.00;99387.66;5027351;28;20029;-30
2022/06/11 00:32:03;;;;;;;24.27;18.83;;;;;;;18.71;100.00;99400.44;5046055;28;20143;-35
2022/06/11 00:34:29;;;;;;;25.05;17.90;;;;;;;18.76;100.00;99392.31;5027507;28;20033;-39
2022/06/11 00:36:55;;;;;;;24.70;19.20;;;;;;;19.08;100.00;99391.63;5045281;28;20381;-32
2022/06/11 00:39:25;;;;;;;25.63;18.80;;;;;;;18.95;100.00;99408.56;5027232;28;20029;-30
2022/06/11 00:41:54;;;;;;;24.58;18.92;;;;;;;18.86;100.00;99411.91;5026950;28;20025;-31
2022/06/11 00:44:20;;;;;;;24.55;19.20;;;;;;;18.89;100.00;99409.72;5027306;28;20597;-36
2022/06/11 00:47:01;;;;;;;24.83;19.35;;;;;;;18.85;100.00;99418.38;5026955;28;20025;-34
2022/06/11 00:49:45;;;;;;;23.50;18.55;;;;;;;18.93;100.00;99413.44;5027165;28;20064;-34
2022/06/11 00:52:20;;;;;;;24.83;18.67;;;;;;;18.93;100.00;99399.94;5045258;28;20021;-31
2022/06/11 00:55:00;;;;;;;25.70;19.27;;;;;;;19.07;100.00;99398.13;5027034;28;20055;-33
2022/06/11 00:57:28;;;;;;;22.80;17.90;;;;;;;19.15;100.00;99400.19;5027173;28;20025;-31
2022/06/11 00:59:58;;;;;;;28.92;17.52;;;;;;;19.00;100.00;99394.97;5026795;28;20567;-37
2022/06/11 01:02:23;;;;;;;22.80;18.45;;;;;;;19.04;100.00;99396.00;5027053;28;20025;-33
2022/06/11 01:04:53;;;;;;;22.60;17.65;;;;;;;18.86;100.00;99401.09;5045043;28;20044;-30
2022/06/11 01:07:40;;;;;;;20.73;17.05;;;;;;;18.95;100.00;99412.06;5045449;28;20029;-34
2022/06/11 01:10:08;;;;;;;23.13;18.58;;;;;;;18.83;100.00;99390.84;5027197;28;20037;-31
2022/06/11 01:12:49;;;;;;;24.95;17.25;;;;;;;18.83;100.00;99401.66;5045038;28;20033;-30
2022/06/11 01:15:22;;;;;;;23.98;17.05;;;;;;;18.76;100.00;99398.50;5026749;28;20095;-32
2022/06/11 01:17:52;;;;;;;23.67;17.92;;;;;;;19.01;100.00;99410.09;5027331;28;20033;-30
2022/06/11 01:20:39;;;;;;;23.90;17.83;;;;;;;18.79;100.00;99411.44;5027035;28;20032;-30
2022/06/11 01:23:26;;;;;;;23.25;17.20;;;;;;;18.84;100.00;99403.28;5044695;28;20027;-34
2022/06/11 01:32:44;;;;;;;26.13;18.63;;;;;;;18.38;100.00;99406.50;4851633;27;8330277;-32
2022/06/11 01:35:28;;;;;;;27.98;19.00;;;;;;;18.54;100.00;99409.03;5103674;28;20064;-40
2022/06/11 01:38:06;;;;;;;29.05;19.30;;;;;;;18.64;100.00;99400.81;5103863;28;20039;-31
2022/06/11 01:41:05;;;;;;;29.27;18.58;;;;;;;18.85;100.00;99391.38;5101968;28;20028;-35
2022/06/11 01:43:38;;;;;;;22.33;17.50;;;;;;;18.86;100.00;99395.69;5102165;28;20057;-35
2022/06/11 01:46:10;;;;;;;23.92;17.50;;;;;;;18.87;100.00;99405.41;5101732;28;20429;-33
2022/06/11 01:48:35;;;;;;;24.10;18.23;;;;;;;19.07;100.00;99401.63;5102990;28;20035;-37
2022/06/11 01:51:13;;;;;;;20.60;16.38;;;;;;;18.82;100.00;99391.16;5103198;28;20073;-31
2022/06/11 01:53:50;;;;;;;24.13;16.95;;;;;;;18.65;100.00;99411.34;5103250;28;20030;-30
2022/06/11 01:56:40;;;;;;;25.67;17.70;;;;;;;18.72;100.00;99418.28;5102817;28;20566;-34
2022/06/11 01:59:53;;;;;;;23.95;17.42;;;;;;;18.73;100.00;99417.97;5101717;28;20075;-32
2022/06/11 02:02:24;;;;;;;21.85;17.42;;;;;;;18.58;100.00;99437.88;5002763;28;20037;-29
2022/06/11 02:04:53;;;;;;;22.02;17.42;;;;;;;18.76;100.00;99428.22;5108786;28;20429;-30
2022/06/11 02:07:30;;;;;;;19.92;16.83;;;;;;;18.85;100.00;99396.78;5102764;28;20107;-31
2022/06/11 02:10:03;;;;;;;22.70;19.05;;;;;;;19.00;100.00;99412.00;5101375;28;20039;-40
2022/06/11 02:12:48;;;;;;;21.40;17.00;;;;;;;19.13;100.00;99412.38;5101141;28;20051;-32
2022/06/11 02:15:19;;;;;;;21.08;17.38;;;;;;;19.16;100.00;99409.06;5101292;28;20028;-30
2022/06/11 02:17:50;;;;;;;23.02;16.38;;;;;;;19.25;100.00;99424.34;5103106;28;20050;-30
2022/06/11 02:20:28;;;;;;;24.50;17.20;;;;;;;19.18;100.00;99406.88;5101420;28;20032;-33
2022/06/11 02:22:59;;;;;;;;;;;;;;;19.12;100.00;99435.88;5084697;28;20085;-30
2022/06/11 02:25:30;;;;;;;22.27;17.25;;;;;;;19.23;100.00;99436.56;5102571;28;19951;-31
2022/06/11 02:28:02;;;;;;;18.95;16.05;;;;;;;19.00;100.00;99449.00;5102583;28;20114;-29
2022/06/11 02:30:30;;;;;;;20.65;17.35;;;;;;;18.83;100.00;99454.91;5101831;28;20035;-33
2022/06/11 02:32:56;;;;;;;22.02;15.57;;;;;;;18.81;100.00;99446.28;5107527;28;20135;-33
2022/06/11 02:35:57;;;;;;;22.50;17.55;;;;;;;18.79;100.00;99443.06;5104081;28;20531;-37
2022/06/11 02:38:25;;;;;;;21.92;17.00;;;;;;;18.71;100.00;99438.25;5103926;28;20039;-32
2022/06/11 02:40:59;;;;;;;21.33;17.30;;;;;;;18.63;100.00;99431.59;5104004;28;20031;-35
2022/06/11 02:43:24;;;;;;;22.83;16.98;;;;;;;18.59;100.00;99427.84;5110647;28;20028;-32
2022/06/11 02:45:51;;;;;;;22.85;17.58;;;;;;;18.60;100.00;99413.28;5108867;28;20029;-36
2022/06/11 02:48:16;;;;;;;21.98;17.75;;;;;;;18.71;100.00;99413.97;5108414;28;20410;-33
2022/06/11 02:50:43;;;;;;;23.58;18.08;;;;;;;18.68;100.00;99399.13;5108868;28;20027;-37
2022/06/11 02:53:10;;;;;;;20.63;17.33;;;;;;;18.56;100.00;99407.66;5090086;28;20517;-30
2022/06/11 02:55:37;;;;;;;22.27;17.63;;;;;;;18.85;100.00;99415.69;5090290;28;20035;-31
2022/06/11 02:58:06;;;;;;;17.88;15.98;;;;;;;19.02;100.00;99403.59;5090022;28;20019;-33
2022/06/11 03:00:36;;;;;;;19.50;16.08;;;;;;;19.21;100.00;99406.31;5089488;28;20032;-31
2022/06/11 03:03:02;;;;;;;21.48;16.80;;;;;;;19.32;100.00;99412.38;5089727;28;20042;-29
2022/06/11 03:05:31;;;;;;;21.02;16.63;;;;;;;19.37;100.00;99394.19;5089952;28;20031;-38
2022/06/11 03:07:59;;;;;;;22.90;18.45;;;;;;;19.47;100.00;99398.59;5089790;28;20134;-36
2022/06/11 03:10:25;;;;;;;17.75;15.85;;;;;;;19.15;100.00;99381.25;5089675;28;20114;-29
2022/06/11 03:12:51;;;;;;;20.48;16.42;;;;;;;19.44;100.00;99412.72;5089896;28;20039;-29
2022/06/11 03:15:18;;;;;;;18.38;16.02;;;;;;;19.41;100.00;99399.78;5089405;28;20587;-33
2022/06/11 03:17:45;;;;;;;20.08;17.05;;;;;;;19.37;100.00;99396.06;5089891;28;20379;-34
2022/06/11 03:20:13;;;;;;;20.45;16.25;;;;;;;19.53;100.00;99394.72;5089655;28;20094;-32
2022/06/11 03:22:39;;;;;;;;;;;;;;;19.60;100.00;99402.50;5089077;28;20480;-33
2022/06/11 03:25:05;;;;;;;19.75;16.45;;;;;;;19.43;100.00;99398.41;5106711;28;19911;-30
2022/06/11 03:27:31;;;;;;;20.42;16.38;;;;;;;19.47;100.00;99394.03;5107388;28;20047;-34
2022/06/11 03:29:56;;;;;;;20.08;16.83;;;;;;;19.62;100.00;99411.13;5088537;28;20069;-33
2022/06/11 03:32:22;;;;;;;19.45;17.08;;;;;;;19.56;100.00;99413.09;5088892;28;20031;-34
2022/06/11 03:34:48;;;;;;;22.33;17.25;;;;;;;19.66;100.00;99404.81;5107878;28;20031;-35
2022/06/11 03:37:13;;;;;;;19.90;17.30;;;;;;;19.60;100.00;99419.50;5106923;28;20572;-33
2022/06/11 03:39:40;;;;;;;17.95;15.30;;;;;;;19.57;100.00;99420.09;5107718;28;20024;-35
2022/06/11 03:42:06;;;;;;;20.08;16.23;;;;;;;19.71;100.00;99419.38;5089012;28;20035;-32
2022/06/11 03:44:32;;;;;;;20.38;16.70;;;;;;;19.60;100.00;99419.50;5107236;28;20031;-34
2022/06/11 03:46:57;;;;;;;17.30;14.68;;;;;;;19.70;100.00;99423.16;5107498;28;20034;-34
2022/06/11 03:49:24;;;;;;;17.98;15.23;;;;;;;19.75;100.00;99431.22;5107492;28;20032;-30
2022/06/11 03:51:50;;;;;;;18.25;15.25;;;;;;;19.79;100.00;99440.34;5072037;28;20035;-33
2022/06/11 03:54:17;;;;;;;19.75;15.43;;;;;;;19.76;100.00;99422.03;5087866;28;20073;-30
2022/06/11 03:56:45;;;;;;;20.35;16.50;;;;;;;19.68;100.00;99424.25;5088893;28;20031;-30
2022/06/11 03:59:11;;;;;;;18.38;15.60;;;;;;;19.57;100.00;99424.69;5106853;28;20115;-30
2022/06/11 04:01:38;;;;;;;18.83;15.32;;;;;;;19.62;100.00;99435.44;5107338;28;20106;-29
2022/06/11 04:04:07;;;;;;;18.30;15.80;;;;;;;19.89;100.00;99442.88;5088597;28;20023;-32
2022/06/11 04:06:40;;;;;;;18.65;15.07;;;;;;;19.81;100.00;99440.84;5088342;28;20051;-34
2022/06/11 04:09:10;;;;;;;17.13;14.88;;;;;;;19.79;100.00;99427.63;5088350;28;20027;-34
2022/06/11 04:11:36;;;;;;;17.60;15.48;;;;;;;19.87;100.00;99431.56;5088242;28;20040;-31
2022/06/11 04:14:02;;;;;;;19.33;15.98;;;;;;;20.05;100.00;99433.41;5106975;28;20034;-31
2022/06/11 04:16:52;;;;;;;18.05;16.10;;;;;;;20.01;100.00;99437.81;5088253;28;20064;-31
2022/06/11 04:19:22;;;;;;;18.73;16.67;;;;;;;19.96;100.00;99435.22;5088448;28;20115;-29
2022/06/11 04:21:49;;;;;;;19.30;15.95;;;;;;;19.97;100.00;99444.13;5106849;28;20088;-29
2022/06/11 04:24:15;;;;;;;16.77;14.98;;;;;;;20.21;100.00;99433.16;5087812;28;20023;-30
2022/06/11 04:26:45;;;;;;;19.08;15.77;;;;;;;20.17;100.00;99437.56;5106805;28;20035;-30
2022/06/11 04:29:16;;;;;;;18.23;15.73;;;;;;;20.22;100.00;99432.03;5088051;28;20034;-31
2022/06/11 04:31:43;;;;;;;19.50;16.13;;;;;;;20.21;100.00;99438.56;5106456;28;20031;-32
2022/06/11 04:34:11;;;;;;;20.73;15.93;;;;;;;20.14;100.00;99454.38;5087807;28;20079;-36
2022/06/11 04:36:37;;;;;;;17.00;15.13;;;;;;;20.13;100.00;99447.38;5087711;28;20039;-33
2022/06/11 04:39:05;;;;;;;18.25;15.25;;;;;;;20.10;100.00;99437.94;5106493;28;20028;-33
2022/06/11 04:41:31;;;;;;;17.88;15.20;;;;;;;20.41;100.00;99446.31;5088407;28;20027;-29
2022/06/11 04:43:56;;;;;;;19.27;14.70;;;;;;;20.53;100.00;99445.00;5106426;28;20065;-30
2022/06/11 04:46:22;;;;;;;17.52;13.95;;;;;;;20.55;100.00;99450.94;5105997;28;20027;-30
2022/06/11 04:48:48;;;;;;;16.80;14.32;;;;;;;20.67;98.50;99435.00;5106424;28;20027;-29
2022/06/11 04:51:15;;;;;;;16.48;14.23;;;;;;;20.74;99.27;99454.41;5087525;28;20460;-29
2022/06/11 04:53:42;;;;;;;14.82;13.23;;;;;;;20.71;99.28;99468.53;5088106;28;20091;-33
2022/06/11 04:56:08;;;;;;;16.02;14.32;;;;;;;20.73;99.73;99469.03;5106444;28;20027;-31
2022/06/11 04:58:33;;;;;;;15.55;13.93;;;;;;;20.62;100.00;99473.84;5106464;28;20031;-33
2022/06/11 05:00:59;;;;;;;16.58;14.00;;;;;;;20.61;100.00;99471.44;5106399;28;20097;-30
2022/06/11 05:03:24;;;;;;;18.27;14.80;;;;;;;20.78;99.75;99463.53;5106668;28;20059;-29
2022/06/11 05:05:50;;;;;;;16.38;14.30;;;;;;;20.68;100.00;99490.81;5106026;28;20046;-31
2022/06/11 05:08:16;;;;;;;16.25;13.27;;;;;;;20.78;99.07;99479.78;5106436;28;20028;-31
2022/06/11 05:10:44;;;;;;;14.70;13.02;;;;;;;20.45;100.00;99471.69;5088006;28;20023;-31
2022/06/11 05:13:11;;;;;;;15.87;13.03;;;;;;;20.61;100.00;99495.81;5087801;28;20042;-31
2022/06/11 05:15:49;;;;;;;16.73;14.88;;;;;;;20.57;100.00;99468.47;5087889;28;20039;-30
2022/06/11 05:18:15;;;;;;;;;;;;;;;20.58;100.00;99490.97;5088128;28;20024;-32
2022/06/11 05:20:41;;;;;;;15.95;14.25;;;;;;;20.54;100.00;99495.38;5105889;28;20693;-37
2022/06/11 05:23:06;;;;;;;15.60;13.65;;;;;;;20.65;100.00;99494.91;5087766;28;20072;-30
2022/06/11 05:25:33;;;;;;;17.98;14.80;;;;;;;20.74;100.00;99505.88;5087863;28;20047;-34
2022/06/11 05:27:59;;;;;;;16.20;13.45;;;;;;;20.48;100.00;99509.00;5087750;28;20108;-30
2022/06/11 05:30:29;;;;;;;15.32;13.63;;;;;;;20.55;100.00;99507.81;5086881;28;20104;-31
2022/06/11 05:32:55;;;;;;;16.40;13.40;;;;;;;20.29;98.23;99516.41;5105465;28;20060;-32
2022/06/11 05:35:25;;;;;;;15.23;13.25;;;;;;;19.98;99.55;99502.53;5105775;28;20092;-34
2022/06/11 05:37:53;;;;;;;17.25;14.18;;;;;;;19.88;99.92;99514.34;5087341;28;20067;-35
2022/06/11 05:40:22;;;;;;;15.50;13.75;;;;;;;19.82;98.03;99502.00;5087152;28;20059;-30
2022/06/11 05:42:47;;;;;;;18.83;14.05;;;;;;;19.93;97.66;99508.06;5087126;28;20054;-30
2022/06/11 05:45:18;;;;;;;17.30;14.13;;;;;;;19.94;98.20;99520.47;5105574;28;20515;-33
2022/06/11 05:47:45;;;;;;;17.85;14.35;;;;;;;19.76;98.54;99497.78;5105685;28;20114;-32
2022/06/11 05:50:16;;;;;;;21.05;15.35;;;;;;;19.82;100.00;99531.75;5087186;28;20031;-36
2022/06/11 05:52:45;;;;;;;19.15;14.98;;;;;;;20.05;98.14;99525.44;5087180;28;20038;-33
2022/06/11 05:55:13;;;;;;;19.08;15.20;;;;;;;20.00;99.88;99528.25;5105479;28;20032;-33
2022/06/11 05:57:39;;;;;;;19.90;16.83;;;;;;;19.99;100.00;99517.69;5087004;28;20441;-31
2022/06/11 06:00:08;;;;;;;31.35;25.70;;;;;;;20.09;99.58;99516.75;5086669;28;20060;-30
2022/06/11 06:02:34;;;;;;;21.83;16.67;;;;;;;20.24;99.03;99540.84;5086782;28;20491;-34
2022/06/11 06:05:00;;;;;;;18.75;15.52;;;;;;;20.24;99.04;99540.84;5105340;28;20028;-31
2022/06/11 06:07:25;;;;;;;22.25;18.60;;;;;;;20.39;98.54;99540.59;5105351;28;20077;-32
2022/06/11 06:09:50;;;;;;;33.53;28.35;;;;;;;20.56;99.15;99552.78;5105257;28;20027;-30
2022/06/11 06:12:17;;;;;;;19.13;15.30;;;;;;;20.43;97.70;99555.16;5105234;28;20086;-31
2022/06/11 06:14:43;;;;;;;18.50;16.10;;;;;;;20.19;99.20;99557.19;5075090;28;20032;-40
2022/06/11 06:17:08;;;;;;;19.73;15.25;;;;;;;20.20;98.37;99529.78;5083742;28;20082;-32
2022/06/11 06:19:34;;;;;;;15.13;13.52;;;;;;;20.19;96.73;99551.78;5088839;28;20024;-34
2022/06/11 06:22:04;;;;;;;16.10;14.40;;;;;;;20.21;97.15;99552.28;5088851;28;20024;-31
2022/06/11 06:24:31;;;;;;;16.10;13.98;;;;;;;20.21;97.63;99546.88;5088374;28;20104;-33
2022/06/11 06:26:57;;;;;;;16.40;14.48;;;;;;;20.07;98.11;99546.81;5070170;28;20143;-33
2022/06/11 06:29:22;;;;;;;93.38;59.72;;;;;;;20.17;98.11;99543.94;5088584;28;20055;-30
2022/06/11 06:31:48;;;;;;;20.27;16.75;;;;;;;20.12;96.91;99543.22;5088638;28;20495;-29
2022/06/11 06:34:13;;;;;;;15.57;12.35;;;;;;;20.12;98.08;99545.91;5070077;28;20056;-31
2022/06/11 06:36:39;;;;;;;13.13;11.73;;;;;;;19.93;100.00;99554.84;5088311;28;20023;-31
2022/06/11 06:39:04;;;;;;;17.95;14.63;;;;;;;20.13;99.20;99540.22;5088394;28;20780;-35
2022/06/11 06:41:30;;;;;;;15.32;11.88;;;;;;;20.03;99.95;99535.75;5081368;28;20111;-38
2022/06/11 06:43:55;;;;;;;17.60;12.40;;;;;;;20.05;99.78;99549.81;5083717;28;20032;-33
2022/06/11 06:46:21;;;;;;;15.70;11.93;;;;;;;20.06;98.40;99539.78;5088256;28;20035;-29
2022/06/11 06:48:46;;;;;;;16.67;11.52;;;;;;;20.08;98.42;99537.56;5088251;28;20028;-32
2022/06/11 06:51:12;;;;;;;13.32;11.52;;;;;;;20.03;99.03;99535.75;5088310;28;20039;-29
2022/06/11 06:53:39;;;;;;;15.05;12.93;;;;;;;19.93;99.01;99525.09;5088168;28;20527;-33
2022/06/11 06:56:06;;;;;;;13.57;12.10;;;;;;;19.91;98.34;99532.69;5069662;28;20032;-34
2022/06/11 06:58:32;;;;;;;15.25;12.70;;;;;;;19.70;100.00;99507.81;5069285;28;20071;-29
2022/06/11 07:00:57;;;;;;;17.02;12.55;;;;;;;19.94;99.09;99520.47;5088426;28;20063;-33
2022/06/11 07:03:23;;;;;;;17.15;11.90;;;;;;;19.98;99.09;99526.91;5069845;28;20067;-34
2022/06/11 07:05:49;;;;;;;16.35;12.60;;;;;;;20.09;97.65;99516.75;5088191;28;20110;-30
2022/06/11 07:08:15;;;;;;;15.15;12.30;;;;;;;20.10;97.65;99524.53;5087860;28;20028;-31
2022/06/11 07:10:48;;;;;;;16.88;12.57;;;;;;;19.82;99.42;99523.66;5068849;28;20036;-32
2022/06/11 07:13:15;;;;;;;15.57;12.75;;;;;;;19.89;100.00;99540.31;5069588;28;20097;-30
2022/06/11 07:15:43;;;;;;;15.48;13.35;;;;;;;19.96;100.00;99540.75;5087825;28;20056;-33
2022/06/11 07:18:18;;;;;;;19.85;14.10;;;;;;;20.10;99.06;99534.56;5069555;28;20031;-33
2022/06/11 07:20:46;;;;;;;21.38;15.27;;;;;;;20.07;100.00;99542.19;5069755;28;20495;-33
2022/06/11 07:23:21;;;;;;;;;;;;;;;20.29;98.30;99548.91;5070662;28;20035;-30
2022/06/11 07:25:50;;;;;;;17.42;13.80;;;;;;;19.88;98.15;99560.34;5065440;28;19912;-32
2022/06/11 07:28:22;;;;;;;17.40;14.73;;;;;;;19.40;100.00;99527.97;5052605;28;20094;-30
2022/06/11 07:30:48;;;;;;;17.85;13.60;;;;;;;19.55;100.00;99557.50;5049768;28;20033;-30
2022/06/11 07:33:24;;;;;;;19.05;14.05;;;;;;;19.67;100.00;99554.38;5049617;28;20083;-31
2022/06/11 07:35:51;;;;;;;16.65;13.23;;;;;;;19.67;100.00;99532.75;5068187;28;20032;-29
2022/06/11 07:38:17;;;;;;;18.38;12.80;;;;;;;19.80;100.00;99553.69;5049831;28;20565;-30
2022/06/11 07:40:43;;;;;;;17.00;12.48;;;;;;;19.73;100.00;99547.03;5049815;28;20025;-37
2022/06/11 07:43:09;;;;;;;13.82;11.60;;;;;;;19.60;100.00;99549.34;5049711;28;20063;-39
2022/06/11 07:45:39;;;;;;;13.45;11.10;;;;;;;19.78;100.00;99544.28;5067782;28;20396;-30
2022/06/11 07:48:05;;;;;;;11.30;9.48;;;;;;;19.56;100.00;99553.72;5067685;28;20029;-32
2022/06/11 07:50:34;;;;;;;14.10;9.65;;;;;;;19.70;100.00;99550.31;5049155;28;20024;-30
2022/06/11 07:53:01;;;;;;;12.18;10.15;;;;;;;19.78;100.00;99539.66;5049435;28;20506;-30
2022/06/11 07:55:27;;;;;;;12.68;9.25;;;;;;;19.76;100.00;99543.75;5049359;28;20029;-30
2022/06/11 07:57:53;;;;;;;11.73;9.10;;;;;;;19.71;100.00;99530.28;5067578;28;20086;-32
2022/06/11 08:00:45;;;;;;;11.43;9.18;;;;;;;19.54;100.00;99549.72;5049224;28;20029;-33
2022/06/11 08:03:11;;;;;;;10.82;9.73;;;;;;;19.50;100.00;99549.47;5041436;28;20593;-31
2022/06/11 08:05:37;;;;;;;11.25;8.95;;;;;;;19.28;100.00;99550.81;5067523;28;20491;-31
2022/06/11 08:08:04;;;;;;;10.27;8.43;;;;;;;19.23;100.00;99536.56;5067227;28;20031;-30
2022/06/11 08:10:30;;;;;;;12.98;9.55;;;;;;;19.11;100.00;99539.69;5067049;28;20111;-33
2022/06/11 08:12:56;;;;;;;13.43;8.75;;;;;;;19.15;100.00;99548.03;5049079;28;20033;-30
2022/06/11 08:15:22;;;;;;;34.80;10.35;;;;;;;18.68;100.00;99523.38;5048804;28;20479;-30
2022/06/11 08:17:47;;;;;;;11.48;8.75;;;;;;;18.84;100.00;99543.75;5067072;28;20166;-34
2022/06/11 08:20:17;;;;;;;11.18;8.15;;;;;;;18.75;100.00;99540.03;5049042;28;20020;-34
2022/06/11 08:22:43;;;;;;;9.10;6.65;;;;;;;18.57;100.00;99533.47;5048903;28;20036;-29
2022/06/11 08:25:08;;;;;;;44.22;8.98;;;;;;;18.40;100.00;99550.09;5066949;28;20456;-32
2022/06/11 08:27:34;;;;;;;7.90;5.57;;;;;;;18.22;100.00;99534.59;5067091;28;20040;-29
2022/06/11 08:29:59;;;;;;;36.33;6.38;;;;;;;18.01;100.00;99547.44;5066417;28;20032;-32
2022/06/11 08:32:25;;;;;;;11.20;6.18;;;;;;;17.95;100.00;99526.97;5051715;28;20495;-37
2022/06/11 08:34:51;;;;;;;8.18;5.68;;;;;;;18.18;100.00;99552.44;5068911;28;20024;-34
2022/06/11 08:37:17;;;;;;;8.27;6.03;;;;;;;17.85;100.00;99539.44;5087259;28;20561;-33
2022/06/11 08:39:42;;;;;;;8.63;5.57;;;;;;;18.06;100.00;99553.59;5068452;28;20066;-31
2022/06/11 08:42:33;;;;;;;8.20;5.75;;;;;;;18.12;100.00;99558.94;5087024;28;20036;-37
2022/06/11 08:45:04;;;;;;;11.15;6.07;;;;;;;18.03;100.00;99551.44;5068741;28;20027;-30
2022/06/11 08:47:40;;;;;;;8.80;5.80;;;;;;;18.12;100.00;99554.34;5069010;28;20506;-36
2022/06/11 08:50:11;;;;;;;9.52;6.40;;;;;;;18.38;100.00;99560.34;5068682;28;20024;-32
2022/06/11 08:52:36;;;;;;;10.25;6.28;;;;;;;18.40;100.00;99560.09;5086779;28;20050;-30
2022/06/11 08:55:02;;;;;;;8.32;6.07;;;;;;;18.43;100.00;99563.03;5086531;28;20107;-30
2022/06/11 08:57:59;;;;;;;11.57;6.90;;;;;;;18.46;100.00;99543.56;5087335;28;20032;-30
2022/06/11 09:00:34;;;;;;;8.95;6.30;;;;;;;18.62;100.00;99543.41;5068455;28;20036;-30
2022/06/11 09:03:59;;;;;;;9.13;5.65;;;;;;;18.76;100.00;99567.88;5068569;28;20021;-33
2022/06/11 09:07:06;;;;;;;8.88;5.97;;;;;;;18.61;100.00;99568.81;5003667;28;20045;-30
2022/06/11 09:09:44;;;;;;;9.97;5.63;;;;;;;18.70;100.00;99574.41;4982364;28;20046;-33
2022/06/11 09:12:59;;;;;;;7.53;5.45;;;;;;;18.62;100.00;99570.44;5083814;28;20487;-36
2022/06/11 09:15:42;;;;;;;8.60;5.97;;;;;;;18.73;100.00;99573.84;5032964;28;20126;-30
2022/06/11 09:18:40;;;;;;;7.97;5.80;;;;;;;19.06;100.00;99582.97;5068401;28;20497;-35
2022/06/11 09:21:37;;;;;;;7.15;5.15;;;;;;;18.82;100.00;99567.56;5067224;28;20091;-35
2022/06/11 09:24:29;;;;;;;7.90;5.68;;;;;;;19.11;100.00;99591.03;5067783;28;20028;-30
2022/06/11 09:27:04;;;;;;;7.55;4.80;;;;;;;19.21;100.00;99590.94;5055161;28;20165;-31
2022/06/11 09:29:42;;;;;;;8.25;5.38;;;;;;;19.07;100.00;99573.78;5086467;28;20040;-30
2022/06/11 09:32:25;;;;;;;8.25;5.13;;;;;;;19.09;100.00;99587.81;5067520;28;20028;-32
2022/06/11 09:35:19;;;;;;;7.07;4.97;;;;;;;19.03;100.00;99583.56;5086366;28;20827;-29
2022/06/11 09:37:54;;;;;;;7.15;5.00;;;;;;;18.86;100.00;99592.13;5068043;28;20032;-30
2022/06/11 09:40:38;;;;;;;10.00;5.68;;;;;;;18.79;100.00;99600.53;5067649;28;20039;-29
2022/06/11 09:43:28;;;;;;;9.18;5.20;;;;;;;18.70;100.00;99604.91;5085765;28;20043;-29
2022/06/11 09:46:00;;;;;;;6.95;5.22;;;;;;;18.73;100.00;99598.13;5085857;28;20039;-29
2022/06/11 09:49:04;;;;;;;10.00;6.38;;;;;;;18.80;100.00;99596.75;5085760;28;20035;-29
2022/06/11 09:51:44;;;;;;;9.60;6.88;;;;;;;18.78;100.00;99598.91;5000937;28;20434;-33
2022/06/11 09:54:16;;;;;;;11.45;7.28;;;;;;;18.87;100.00;99601.81;5071287;28;20078;-39
2022/06/11 09:56:48;;;;;;;10.57;7.35;;;;;;;18.92;100.00;99606.34;5089733;28;20024;-35
2022/06/11 09:59:17;;;;;;;10.27;7.35;;;;;;;19.06;100.00;99594.59;5089596;28;20032;-34
2022/06/11 10:01:48;;;;;;;9.40;7.13;;;;;;;19.17;100.00;99595.28;5089729;28;20479;-33
2022/06/11 10:04:17;;;;;;;10.43;8.05;;;;;;;19.01;100.00;99589.25;5071527;28;20028;-33
2022/06/11 10:06:53;;;;;;;9.95;7.72;;;;;;;19.04;100.00;99587.84;5071690;28;20097;-30
2022/06/11 10:09:40;;;;;;;11.85;8.60;;;;;;;19.48;100.00;99594.94;5071165;28;20036;-30
2022/06/11 10:12:31;;;;;;;9.90;8.07;;;;;;;19.68;100.00;99594.66;5089416;28;20023;-32
2022/06/11 10:15:09;;;;;;;9.88;8.07;;;;;;;19.59;100.00;99606.41;5071425;28;20101;-32
2022/06/11 10:17:51;;;;;;;9.90;7.60;;;;;;;19.42;100.00;99587.97;5071161;28;20035;-30
2022/06/11 10:20:26;;;;;;;9.15;7.38;;;;;;;19.66;100.00;99602.28;5070983;28;20035;-33
2022/06/11 10:23:03;;;;;;;9.85;7.70;;;;;;;19.92;100.00;99603.84;5070991;28;20024;-31
2022/06/11 10:25:40;;;;;;;10.80;7.60;;;;;;;20.22;100.00;99602.59;5071137;28;20042;-31
2022/06/11 10:28:26;;;;;;;10.50;7.43;;;;;;;20.33;100.00;99598.66;5070936;28;20269;-29
2022/06/11 10:31:02;;;;;;;8.77;7.18;;;;;;;20.57;99.69;99593.09;5088200;28;20048;-33
2022/06/11 10:33:36;;;;;;;7.80;6.38;;;;;;;20.72;97.17;99605.63;5070929;28;20052;-37
2022/06/11 10:36:27;;;;;;;8.93;6.60;;;;;;;20.98;93.81;99616.00;5070793;28;20483;-29
2022/06/11 10:39:04;;;;;;;9.35;6.82;;;;;;;21.10;93.82;99610.88;5070961;28;20028;-34
2022/06/11 10:41:55;;;;;;;8.82;7.07;;;;;;;21.13;94.69;99610.31;5054300;28;20477;-33
2022/06/11 10:44:44;;;;;;;6.97;6.03;;;;;;;21.40;90.53;99609.50;5088744;28;20460;-29
2022/06/11 10:47:26;;;;;;;7.70;5.85;;;;;;;21.15;91.95;99604.59;5089089;28;20040;-35
2022/06/11 10:50:11;;;;;;;7.63;6.15;;;;;;;21.10;95.17;99605.47;5070847;28;20071;-32
2022/06/11 10:52:39;;;;;;;7.57;6.28;;;;;;;21.23;94.90;99604.69;5070066;28;20024;-33
2022/06/11 10:55:08;;;;;;;7.75;5.43;;;;;;;21.53;87.95;99613.34;5070597;28;20486;-30
2022/06/11 10:57:34;;;;;;;7.15;5.80;;;;;;;21.64;91.38;99613.94;5070416;28;20139;-33
2022/06/11 11:00:18;;;;;;;9.13;5.60;;;;;;;21.69;nan;99618.44;5070300;28;20475;-29
2022/06/11 11:02:49;;;;;;;8.00;6.45;;;;;;;21.66;93.12;99600.88;5069824;28;20032;-35
2022/06/11 11:05:18;;;;;;;7.57;5.75;;;;;;;22.02;87.81;99608.22;5076788;28;20029;-36
2022/06/11 11:07:57;;;;;;;7.85;5.93;;;;;;;21.88;88.13;99610.97;5070129;28;20119;-35
2022/06/11 11:10:35;;;;;;;6.75;5.00;;;;;;;22.18;87.60;99608.69;5069896;28;20119;-30
2022/06/11 11:13:02;;;;;;;;;;;;;;;22.59;88.95;99605.00;5089351;28;20107;-31
2022/06/11 11:15:37;;;;;;;7.80;5.28;;;;;;;22.83;80.92;99608.19;5088509;28;20007;-31
2022/06/11 11:18:16;;;;;;;7.70;5.47;;;;;;;22.69;84.61;99604.75;5070056;28;20039;-29
2022/06/11 11:20:43;;;;;;;6.80;5.50;;;;;;;22.65;85.30;99590.97;5069969;28;20127;-32
2022/06/11 11:23:12;;;;;;;8.83;6.13;;;;;;;22.64;86.04;99602.16;5070105;28;20481;-35
2022/06/11 11:25:59;;;;;;;8.15;5.22;;;;;;;22.81;83.89;99602.25;5088316;28;20036;-31
2022/06/11 11:28:33;;;;;;;7.30;5.72;;;;;;;22.67;88.02;99575.16;5088020;28;20039;-30
2022/06/11 11:31:17;;;;;;;5.78;4.45;;;;;;;22.49;83.54;99597.91;5088300;28;20043;-32
2022/06/11 11:33:56;;;;;;;6.88;5.00;;;;;;;22.30;84.82;99603.53;5069815;28;20048;-29
2022/06/11 11:36:27;;;;;;;7.45;4.82;;;;;;;22.42;86.26;99595.63;5069578;28;20028;-30
2022/06/11 11:39:12;;;;;;;6.80;4.72;;;;;;;22.86;82.74;99599.41;5070186;28;20036;-34
2022/06/11 11:41:38;;;;;;;6.38;4.47;;;;;;;22.49;83.26;99588.94;5087925;28;20575;-29
2022/06/11 11:44:04;;;;;;;7.10;4.15;;;;;;;22.55;81.11;99583.06;5069839;28;20036;-38